| time (UTC) | temp C | wind direction | speed KPH | gust KPH | rain 1hr cm | rain 24hr cm | rain mn cm | humidity % | barometer mb |
| 20260503053456 | 25 | 240 | 0.0 | 1.6 | 0.00 | 0.00 | 0.00 | ||
| 20260503052952 | 25 | 200 | 3.2 | 6.4 | 0.00 | 0.00 | 0.00 | ||
| 20260503052452 | 25 | 236 | 3.2 | 6.4 | 0.00 | 0.00 | 0.00 | ||
| 20260503051952 | 25 | 245 | 3.2 | 6.4 | 0.00 | 0.00 | 0.00 | ||
| 20260503051452 | 25 | 270 | 3.2 | 8.0 | 0.00 | 0.00 | 0.00 | ||
| 20260503050951 | 25 | 267 | 3.2 | 6.4 | 0.00 | 0.00 | 0.00 | ||
| 20260503050451 | 25 | 228 | 3.2 | 11.3 | 0.00 | 0.00 | 0.00 | ||
| 20260503045951 | 25 | 266 | 3.2 | 8.0 | 0.00 | 0.00 | 0.00 | ||
| 20260503045451 | 25 | 283 | 3.2 | 8.0 | 0.00 | 0.00 | 0.00 | ||
| 20260503044950 | 25 | 250 | 3.2 | 9.7 | 0.00 | 0.00 | 0.00 | ||
| 20260503044449 | 25 | 217 | 4.8 | 6.4 | 0.00 | 0.00 | 0.00 | ||
| 20260503043449 | 25 | 267 | 1.6 | 6.4 | 0.00 | 0.00 | 0.00 | ||
| 20260503042947 | 24 | 226 | 4.8 | 11.3 | 0.00 | 0.00 | 0.00 | ||
| 20260503042447 | 24 | 263 | 3.2 | 9.7 | 0.00 | 0.00 | 0.00 | ||
| 20260503041946 | 24 | 280 | 3.2 | 6.4 | 0.00 | 0.00 | 0.00 | ||
| 20260503041446 | 25 | 245 | 1.6 | 6.4 | 0.00 | 0.00 | 0.00 | ||
| 20260503040946 | 25 | 269 | 3.2 | 6.4 | 0.00 | 0.00 | 0.00 | ||
| 20260503040445 | 25 | 222 | 3.2 | 6.4 | 0.00 | 0.00 | 0.00 | ||
| 20260503035945 | 25 | 235 | 3.2 | 6.4 | 0.00 | 0.00 | 0.00 | ||
| 20260503034945 | 25 | 262 | 1.6 | 4.8 | 0.00 | 0.00 | 0.00 | ||
| 20260503034444 | 25 | 270 | 4.8 | 9.7 | 0.00 | 0.00 | 0.00 | ||
| 20260503033942 | 25 | 259 | 3.2 | 6.4 | 0.00 | 0.00 | 0.00 | ||
| 20260503033442 | 26 | 266 | 4.8 | 11.3 | 0.00 | 0.00 | 0.00 | ||
| 20260503032941 | 26 | 269 | 3.2 | 8.0 | 0.00 | 0.00 | 0.00 | ||
| 20260503032441 | 26 | 285 | 4.8 | 8.0 | 0.00 | 0.00 | 0.00 | ||
| 20260503031941 | 26 | 218 | 3.2 | 8.0 | 0.00 | 0.00 | 0.00 | ||
| 20260503031441 | 26 | 283 | 3.2 | 9.7 | 0.00 | 0.00 | 0.00 | ||
| 20260503030941 | 26 | 255 | 4.8 | 9.7 | 0.00 | 0.00 | 0.00 | ||
| 20260503030440 | 26 | 264 | 6.4 | 12.9 | 0.00 | 0.00 | 0.00 | ||
| 20260503025940 | 26 | 291 | 4.8 | 11.3 | 0.00 | 0.00 | 0.00 | ||
| 20260503025440 | 26 | 260 | 6.4 | 11.3 | 0.00 | 0.00 | 0.00 | ||
| 20260503024940 | 26 | 233 | 4.8 | 8.0 | 0.00 | 0.00 | 0.00 | ||
| 20260503024439 | 26 | 264 | 4.8 | 8.0 | 0.00 | 0.00 | 0.00 | ||
| 20260503023939 | 26 | 263 | 4.8 | 12.9 | 0.00 | 0.00 | 0.00 | ||
| 20260503023436 | 26 | 255 | 4.8 | 8.0 | 0.00 | 0.00 | 0.00 | ||
| 20260503022935 | 26 | 278 | 6.4 | 12.9 | 0.00 | 0.00 | 0.00 | ||
| 20260503022435 | 26 | 248 | 4.8 | 11.3 | 0.00 | 0.00 | 0.00 | ||
| 20260503021935 | 26 | 263 | 4.8 | 9.7 | 0.00 | 0.00 | 0.00 | ||
| 20260503021435 | 26 | 271 | 4.8 | 8.0 | 0.00 | 0.00 | 0.00 | ||
| 20260503020935 | 26 | 224 | 4.8 | 11.3 | 0.00 | 0.00 | 0.00 | ||
| 20260503020434 | 26 | 214 | 4.8 | 9.7 | 0.00 | 0.00 | 0.00 | ||
| 20260503015934 | 26 | 205 | 6.4 | 11.3 | 0.00 | 0.00 | 0.00 | ||
| 20260503015430 | 26 | 269 | 4.8 | 11.3 | 0.00 | 0.00 | 0.00 | ||
| 20260503014930 | 26 | 278 | 6.4 | 11.3 | 0.00 | 0.00 | 0.00 | ||
| 20260503014430 | 27 | 233 | 6.4 | 12.9 | 0.00 | 0.00 | 0.00 | ||
| 20260503014227 | 27 | 263 | 6.4 | 14.5 | 0.00 | 0.00 | 0.00 | ||
| 20260503014221 | 27 | 242 | 6.4 | 12.9 | 0.00 | 0.00 | 0.00 | ||
| 20260503014150 | 27 | 236 | 6.4 | 16.1 | 0.00 | 0.00 | 0.00 | ||
| 20260503013931 | 27 | 242 | 6.4 | 12.9 | 0.00 | 0.00 | 0.00 | ||
| 20260503012429 | 27 | 242 | 8.0 | 16.1 | 0.00 | 0.00 | 0.00 | ||
| 20260503011929 | 27 | 242 | 6.4 | 11.3 | 0.00 | 0.00 | 0.00 | ||
| 20260503010928 | 27 | 270 | 6.4 | 17.7 | 0.00 | 0.00 | 0.00 | ||
| 20260503010428 | 27 | 274 | 6.4 | 12.9 | 0.00 | 0.00 | 0.00 | ||
| 20260503005928 | 27 | 215 | 6.4 | 11.3 | 0.00 | 0.00 | 0.00 | ||
| 20260503005429 | 27 | 253 | 6.4 | 12.9 | 0.00 | 0.00 | 0.00 | ||
| 20260503004927 | 27 | 271 | 6.4 | 12.9 | 0.00 | 0.00 | 0.00 | ||
| 20260503004424 | 27 | 259 | 6.4 | 12.9 | 0.00 | 0.00 | 0.00 | ||
| 20260503003924 | 28 | 240 | 6.4 | 16.1 | 0.00 | 0.00 | 0.00 | ||
| 20260503003424 | 28 | 245 | 9.7 | 14.5 | 0.00 | 0.00 | 0.00 | ||
| 20260503002924 | 28 | 250 | 6.4 | 9.7 | 0.00 | 0.00 | 0.00 | ||
| 20260503002424 | 28 | 250 | 6.4 | 12.9 | 0.00 | 0.00 | 0.00 | ||
| 20260503001923 | 28 | 260 | 4.8 | 14.5 | 0.00 | 0.00 | 0.00 | ||
| 20260503001423 | 28 | 264 | 4.8 | 11.3 | 0.00 | 0.00 | 0.00 | ||
| 20260503000923 | 28 | 259 | 4.8 | 12.9 | 0.00 | 0.00 | 0.00 | ||
| 20260503000423 | 28 | 238 | 6.4 | 14.5 | 0.00 | 0.00 | 0.00 | ||
| 20260502235922 | 28 | 281 | 6.4 | 14.5 | 0.00 | 0.00 | 0.00 | ||
| 20260502235422 | 28 | 260 | 8.0 | 16.1 | 0.00 | 0.00 | 0.00 | ||
| 20260502234921 | 28 | 262 | 4.8 | 16.1 | 0.00 | 0.00 | 0.00 | ||
| 20260502234420 | 28 | 260 | 8.0 | 19.3 | 0.00 | 0.00 | 0.00 | ||
| 20260502233920 | 28 | 263 | 8.0 | 12.9 | 0.00 | 0.00 | 0.00 | ||
| 20260502233420 | 28 | 259 | 8.0 | 17.7 | 0.00 | 0.00 | 0.00 | ||
| 20260502232918 | 28 | 266 | 4.8 | 12.9 | 0.00 | 0.00 | 0.00 | ||
| 20260502232418 | 29 | 253 | 3.2 | 9.7 | 0.00 | 0.00 | 0.00 | ||
| 20260502231920 | 29 | 256 | 6.4 | 14.5 | 0.00 | 0.00 | 0.00 | ||
| 20260502231421 | 30 | 260 | 6.4 | 16.1 | 0.00 | 0.00 | 0.00 | ||
| 20260502230917 | 29 | 259 | 3.2 | 11.3 | 0.00 | 0.00 | 0.00 | ||
| 20260502230417 | 30 | 255 | 8.0 | 16.1 | 0.00 | 0.00 | 0.00 | ||
| 20260502225917 | 30 | 255 | 4.8 | 12.9 | 0.00 | 0.00 | 0.00 | ||
| 20260502225416 | 30 | 285 | 4.8 | 11.3 | 0.00 | 0.00 | 0.00 | ||
| 20260502224916 | 30 | 264 | 6.4 | 14.5 | 0.00 | 0.00 | 0.00 | ||
| 20260502224416 | 30 | 267 | 6.4 | 16.1 | 0.00 | 0.00 | 0.00 | ||
| 20260502223914 | 30 | 259 | 8.0 | 19.3 | 0.00 | 0.00 | 0.00 | ||
| 20260502222412 | 31 | 243 | 6.4 | 17.7 | 0.00 | 0.00 | 0.00 | ||
| 20260502221912 | 31 | 260 | 6.4 | 16.1 | 0.00 | 0.00 | 0.00 | ||
| 20260502221411 | 31 | 263 | 6.4 | 17.7 | 0.00 | 0.00 | 0.00 | ||
| 20260502220911 | 31 | 284 | 8.0 | 16.1 | 0.00 | 0.00 | 0.00 | ||
| 20260502220411 | 31 | 259 | 9.7 | 19.3 | 0.00 | 0.00 | 0.00 | ||
| 20260502215911 | 31 | 218 | 6.4 | 16.1 | 0.00 | 0.00 | 0.00 | ||
| 20260502215410 | 31 | 249 | 9.7 | 24.1 | 0.00 | 0.00 | 0.00 | ||
| 20260502214910 | 31 | 212 | 8.0 | 24.1 | 0.00 | 0.00 | 0.00 | ||
| 20260502214410 | 31 | 232 | 6.4 | 14.5 | 0.00 | 0.00 | 0.00 | ||
| 20260502213910 | 31 | 264 | 8.0 | 19.3 | 0.00 | 0.00 | 0.00 | ||
| 20260502213410 | 31 | 235 | 6.4 | 12.9 | 0.00 | 0.00 | 0.00 | ||
| 20260502212909 | 31 | 271 | 9.7 | 20.9 | 0.00 | 0.00 | 0.00 | ||
| 20260502212409 | 31 | 252 | 8.0 | 17.7 | 0.00 | 0.00 | 0.00 | ||
| 20260502211909 | 32 | 246 | 8.0 | 17.7 | 0.00 | 0.00 | 0.00 | ||
| 20260502211409 | 32 | 255 | 6.4 | 14.5 | 0.00 | 0.00 | 0.00 | ||
| 20260502210907 | 32 | 232 | 9.7 | 22.5 | 0.00 | 0.00 | 0.00 | ||
| 20260502210407 | 33 | 257 | 8.0 | 19.3 | 0.00 | 0.00 | 0.00 | ||
| 20260502205907 | 33 | 250 | 9.7 | 19.3 | 0.00 | 0.00 | 0.00 | ||
| 20260502205407 | 33 | 256 | 8.0 | 19.3 | 0.00 | 0.00 | 0.00 | ||
| 20260502204906 | 33 | 253 | 9.7 | 24.1 | 0.00 | 0.00 | 0.00 | ||
| 20260502204403 | 33 | 215 | 9.7 | 29.0 | 0.00 | 0.00 | 0.00 | ||
| 20260502203903 | 33 | 280 | 8.0 | 19.3 | 0.00 | 0.00 | 0.00 | ||
| 20260502203402 | 33 | 228 | 9.7 | 22.5 | 0.00 | 0.00 | 0.00 | ||
| 20260502202902 | 33 | 262 | 8.0 | 22.5 | 0.00 | 0.00 | 0.00 | ||
| 20260502202402 | 32 | 252 | 8.0 | 17.7 | 0.00 | 0.00 | 0.00 | ||
| 20260502201902 | 33 | 267 | 12.9 | 33.8 | 0.00 | 0.00 | 0.00 | ||
| 20260502200901 | 33 | 274 | 6.4 | 19.3 | 0.00 | 0.00 | 0.00 | ||
| 20260502200401 | 34 | 264 | 9.7 | 22.5 | 0.00 | 0.00 | 0.00 | ||
| 20260502195901 | 34 | 193 | 11.3 | 24.1 | 0.00 | 0.00 | 0.00 | ||
| 20260502195358 | 34 | 262 | 9.7 | 29.0 | 0.00 | 0.00 | 0.00 | ||
| 20260502194858 | 34 | 257 | 9.7 | 27.4 | 0.00 | 0.00 | 0.00 | ||
| 20260502193857 | 34 | 262 | 9.7 | 19.3 | 0.00 | 0.00 | 0.00 | ||
| 20260502193357 | 34 | 278 | 11.3 | 22.5 | 0.00 | 0.00 | 0.00 | ||
| 20260502192857 | 33 | 262 | 8.0 | 17.7 | 0.00 | 0.00 | 0.00 | ||
| 20260502192356 | 33 | 215 | 12.9 | 30.6 | 0.00 | 0.00 | 0.00 | ||
| 20260502191856 | 34 | 269 | 11.3 | 22.5 | 0.00 | 0.00 | 0.00 | ||
| 20260502191356 | 35 | 236 | 9.7 | 22.5 | 0.00 | 0.00 | 0.00 | ||
| 20260502190856 | 34 | 270 | 11.3 | 33.8 | 0.00 | 0.00 | 0.00 | ||
| 20260502190356 | 34 | 211 | 11.3 | 20.9 | 0.00 | 0.00 | 0.00 | ||
| 20260502185855 | 33 | 257 | 9.7 | 19.3 | 0.00 | 0.00 | 0.00 | ||
| 20260502185355 | 33 | 193 | 12.9 | 25.7 | 0.00 | 0.00 | 0.00 | ||
| 20260502184855 | 33 | 271 | 9.7 | 22.5 | 0.00 | 0.00 | 0.00 | ||
| 20260502184355 | 32 | 243 | 12.9 | 30.6 | 0.00 | 0.00 | 0.00 | ||
| 20260502183854 | 32 | 225 | 11.3 | 22.5 | 0.00 | 0.00 | 0.00 | ||
| 20260502183353 | 33 | 215 | 8.0 | 22.5 | 0.00 | 0.00 | 0.00 | ||
| 20260502182852 | 32 | 222 | 8.0 | 16.1 | 0.00 | 0.00 | 0.00 | ||
| 20260502182351 | 33 | 280 | 11.3 | 24.1 | 0.00 | 0.00 | 0.00 | ||
| 20260502181850 | 33 | 231 | 9.7 | 22.5 | 0.00 | 0.00 | 0.00 | ||
| 20260502181350 | 32 | 221 | 9.7 | 19.3 | 0.00 | 0.00 | 0.00 | ||
| 20260502180850 | 33 | 236 | 9.7 | 22.5 | 0.00 | 0.00 | 0.00 | ||
| 20260502180349 | 33 | 228 | 8.0 | 17.7 | 0.00 | 0.00 | 0.00 | ||
| 20260502170342 | 33 | 264 | 9.7 | 17.7 | 0.00 | 0.00 | 0.00 | ||
| 20260502164333 | 33 | 204 | 9.7 | 24.1 | 0.00 | 0.00 | 0.00 | ||
| 20260502163832 | 33 | 256 | 8.0 | 19.3 | 0.00 | 0.00 | 0.00 | ||
| 20260502162830 | 33 | 231 | 8.0 | 17.7 | 0.00 | 0.00 | 0.00 | ||
| 20260502162329 | 33 | 212 | 8.0 | 16.1 | 0.00 | 0.00 | 0.00 | ||
| 20260502161829 | 33 | 245 | 8.0 | 16.1 | 0.00 | 0.00 | 0.00 | ||
| 20260502161329 | 33 | 146 | 11.3 | 22.5 | 0.00 | 0.00 | 0.00 | ||
| 20260502160829 | 33 | 228 | 8.0 | 19.3 | 0.00 | 0.00 | 0.00 | ||
| 20260502160328 | 33 | 229 | 11.3 | 20.9 | 0.00 | 0.00 | 0.00 | ||
| 20260502152327 | 32 | 155 | 6.4 | 16.1 | 0.00 | 0.00 | 0.00 | ||
| 20260502151826 | 31 | 210 | 8.0 | 19.3 | 0.00 | 0.00 | 0.00 | ||
| 20260502151326 | 31 | 228 | 8.0 | 14.5 | 0.00 | 0.00 | 0.00 | ||
| 20260502150826 | 31 | 195 | 8.0 | 16.1 | 0.00 | 0.00 | 0.00 | ||
| 20260502150326 | 31 | 273 | 9.7 | 19.3 | 0.00 | 0.00 | 0.00 | ||
| 20260502130312 | 27 | 187 | 8.0 | 16.1 | 0.00 | 0.00 | 0.00 | ||
| 20260502123811 | 26 | 263 | 4.8 | 11.3 | 0.00 | 0.00 | 0.00 | ||
| 20260502123310 | 26 | 219 | 1.6 | 4.8 | 0.00 | 0.00 | 0.00 | ||
| 20260502122809 | 25 | 169 | 1.6 | 4.8 | 0.00 | 0.00 | 0.00 | ||
| 20260502122306 | 25 | 201 | 1.6 | 6.4 | 0.00 | 0.00 | 0.00 | ||
| 20260502121806 | 25 | 201 | 1.6 | 4.8 | 0.00 | 0.00 | 0.00 | ||
| 20260502121306 | 24 | 218 | 1.6 | 4.8 | 0.00 | 0.00 | 0.00 | ||
| 20260502121009 | 25 | 205 | 1.6 | 4.8 | 0.00 | 0.00 | 0.00 | ||
| 20260502120804 | 25 | 205 | 1.6 | 4.8 | 0.00 | 0.00 | 0.00 | ||
| 20260502120303 | 24 | 0 | 0.0 | 0.0 | 0.00 | 0.00 | 0.00 | ||
| 20260502115803 | 24 | 0 | 0.0 | 0.0 | 0.00 | 0.00 | 0.00 | ||
| 20260502115305 | 23 | 0 | 0.0 | 0.0 | 0.00 | 0.00 | 0.00 | ||
| 20260502115220 | 23 | 0 | 0.0 | 0.0 | 0.00 | 0.00 | 0.00 | ||
| 20260502114803 | 23 | 0 | 0.0 | 0.0 | 0.00 | 0.00 | 0.00 | ||
| 20260502114302 | 23 | 0 | 0.0 | 0.0 | 0.00 | 0.00 | 0.00 | ||
| 20260502113801 | 23 | 0 | 0.0 | 0.0 | 0.00 | 0.00 | 0.00 | ||
| 20260502113301 | 23 | 0 | 0.0 | 0.0 | 0.00 | 0.00 | 0.00 | ||
| 20260502111759 | 22 | 0 | 0.0 | 0.0 | 0.00 | 0.00 | 0.00 | ||
| 20260502111258 | 22 | 304 | 0.0 | 0.0 | 0.00 | 0.00 | 0.00 | ||
| 20260502110758 | 22 | 0 | 0.0 | 0.0 | 0.00 | 0.00 | 0.00 | ||
| 20260502110258 | 22 | 0 | 0.0 | 0.0 | 0.00 | 0.00 | 0.00 | ||
| 20260502105758 | 22 | 0 | 0.0 | 0.0 | 0.00 | 0.00 | 0.00 | ||
| 20260502105257 | 22 | 0 | 0.0 | 0.0 | 0.00 | 0.00 | 0.00 | ||
| 20260502105140 | 22 | 0 | 0.0 | 0.0 | 0.00 | 0.00 | 0.00 | ||
| 20260502104754 | 22 | 0 | 0.0 | 0.0 | 0.00 | 0.00 | 0.00 | ||
| 20260502104254 | 22 | 0 | 0.0 | 0.0 | 0.00 | 0.00 | 0.00 | ||
| 20260502103754 | 22 | 0 | 0.0 | 0.0 | 0.00 | 0.00 | 0.00 | ||
| 20260502103253 | 22 | 0 | 0.0 | 0.0 | 0.00 | 0.00 | 0.00 | ||
| 20260502102753 | 22 | 0 | 0.0 | 0.0 | 0.00 | 0.00 | 0.00 | ||
| 20260502102252 | 22 | 0 | 0.0 | 0.0 | 0.00 | 0.00 | 0.00 | ||
| 20260502101751 | 22 | 0 | 0.0 | 0.0 | 0.00 | 0.00 | 0.00 | ||
| 20260502101251 | 23 | 0 | 0.0 | 0.0 | 0.00 | 0.00 | 0.00 | ||
| 20260502100751 | 23 | 0 | 0.0 | 0.0 | 0.00 | 0.00 | 0.00 | ||
| 20260502100251 | 22 | 0 | 0.0 | 0.0 | 0.00 | 0.00 | 0.00 | ||
| 20260502100143 | 23 | 0 | 0.0 | 0.0 | 0.00 | 0.00 | 0.00 | ||
| 20260502091237 | 22 | 0 | 0.0 | 0.0 | 0.00 | 0.00 | 0.00 | ||
| 20260502090735 | 22 | 0 | 0.0 | 0.0 | 0.00 | 0.00 | 0.00 | ||
| 20260502090235 | 22 | 0 | 0.0 | 0.0 | 0.00 | 0.00 | 0.00 | ||
| 20260502070218 | 22 | 0 | 0.0 | 0.0 | 0.00 | 0.00 | 0.00 | ||
| 20260502065212 | 22 | 0 | 0.0 | 0.0 | 0.00 | 0.00 | 0.00 | ||
| 20260502064711 | 22 | 0 | 0.0 | 0.0 | 0.00 | 0.00 | 0.00 | ||
| 20260502064208 | 22 | 0 | 0.0 | 0.0 | 0.00 | 0.00 | 0.00 | ||
| 20260502063707 | 22 | 0 | 0.0 | 0.0 | 0.00 | 0.00 | 0.00 | ||
| 20260502062702 | 22 | 0 | 0.0 | 0.0 | 0.00 | 0.00 | 0.00 | ||
| 20260502062159 | 22 | 0 | 0.0 | 0.0 | 0.00 | 0.00 | 0.00 | ||
| 20260502061659 | 22 | 0 | 0.0 | 0.0 | 0.00 | 0.00 | 0.00 | ||
| 20260502061156 | 22 | 248 | 0.0 | 1.6 | 0.00 | 0.00 | 0.00 | ||
| 20260502060656 | 22 | 0 | 0.0 | 0.0 | 0.00 | 0.00 | 0.00 | ||
| 20260502060152 | 22 | 0 | 0.0 | 0.0 | 0.00 | 0.00 | 0.00 | ||
| 20260502055652 | 22 | 0 | 0.0 | 0.0 | 0.00 | 0.00 | 0.00 | ||
| 20260502055152 | 22 | 0 | 0.0 | 0.0 | 0.00 | 0.00 | 0.00 | ||
| 20260502054645 | 22 | 0 | 0.0 | 0.0 | 0.00 | 0.00 | 0.00 | ||
| 20260502054141 | 22 | 0 | 0.0 | 0.0 | 0.00 | 0.00 | 0.00 |